Time;durP1;ratioP1;P1;durP2;ratioP2;P2;SDS_P1;SDS_P2;PMS_P1;PMS_P2;Temp;Humidity;BMP_temperature;BMP_pressure;BME280_temperature;BME280_humidity;BME280_pressure;Samples;Min_cycle;Max_cycle;Signal;HPM_P1;HPM_P2
2023/03/07 00:00:45;;;;;;;5.07;1.80;;;;;;;;;;5040276;27;93770;-74
2023/03/07 00:03:13;;;;;;;4.75;1.60;;;;;;;;;;5039999;27;95218;-75
2023/03/07 00:05:39;;;;;;;;;;;;;;;;;;5041882;27;94155;-75
2023/03/07 00:08:06;;;;;;;5.70;1.65;;;;;;;;;;5042668;27;122562;-75
2023/03/07 00:10:32;;;;;;;5.13;1.58;;;;;;;;;;5040002;27;92662;-77
2023/03/07 00:12:59;;;;;;;5.50;1.60;;;;;;;;;;5040870;28;93016;-76
2023/03/07 00:15:25;;;;;;;3.80;1.40;;;;;;;;;;5032155;27;93143;-76
2023/03/07 00:17:52;;;;;;;3.00;1.40;;;;;;;;;;5042243;27;92226;-76
2023/03/07 00:20:18;;;;;;;5.13;1.50;;;;;;;;;;5039178;27;92978;-75
2023/03/07 00:22:47;;;;;;;5.40;1.58;;;;;;;;;;5038085;27;92263;-76
2023/03/07 00:25:14;;;;;;;4.15;1.75;;;;;;;;;;5039835;27;92467;-76
2023/03/07 00:27:40;;;;;;;6.53;1.60;;;;;;;;;;5039980;27;94773;-76
2023/03/07 00:30:08;;;;;;;3.58;1.30;;;;;;;;;;5040139;27;92739;-75
2023/03/07 00:32:35;;;;;;;2.42;1.40;;;;;;;;;;5048776;27;99388;-75
2023/03/07 00:35:01;;;;;;;3.45;1.30;;;;;;;;;;5061141;27;95654;-75
2023/03/07 00:37:29;;;;;;;3.80;1.45;;;;;;;;;;5060379;27;92760;-75
2023/03/07 00:39:56;;;;;;;3.50;1.42;;;;;;;;;;5060275;27;95483;-78
2023/03/07 00:42:22;;;;;;;4.32;1.60;;;;;;;;;;5064894;27;92942;-75
2023/03/07 00:44:48;;;;;;;2.90;1.38;;;;;;;;;;5061226;27;92832;-75
2023/03/07 00:47:15;;;;;;;3.17;1.30;;;;;;;;;;5059892;27;95822;-75
2023/03/07 00:49:41;;;;;;;3.35;1.40;;;;;;;;;;5061494;27;92474;-75
2023/03/07 00:52:08;;;;;;;5.03;1.45;;;;;;;;;;5060223;27;94758;-76
2023/03/07 00:54:34;;;;;;;4.88;1.60;;;;;;;;;;5058765;27;94987;-75
2023/03/07 00:57:01;;;;;;;5.35;1.33;;;;;;;;;;5057758;27;92377;-76
2023/03/07 00:59:30;;;;;;;2.53;1.20;;;;;;;;;;5059349;27;95280;-75
2023/03/07 01:01:56;;;;;;;4.05;1.50;;;;;;;;;;5061936;27;93125;-74
2023/03/07 01:04:22;;;;;;;3.95;1.27;;;;;;;;;;5062613;27;92522;-75
2023/03/07 01:06:49;;;;;;;5.25;1.20;;;;;;;;;;5059667;27;92805;-75
2023/03/07 01:09:15;;;;;;;3.92;1.20;;;;;;;;;;5058696;27;91374;-75
2023/03/07 01:11:42;;;;;;;3.25;1.38;;;;;;;;;;5058110;27;92577;-75
2023/03/07 01:14:09;;;;;;;3.40;1.33;;;;;;;;;;5058704;27;92673;-75
2023/03/07 01:16:37;;;;;;;2.25;1.15;;;;;;;;;;5058559;27;94653;-75
2023/03/07 01:19:05;;;;;;;2.63;1.10;;;;;;;;;;5059661;27;97184;-76
2023/03/07 01:21:31;;;;;;;;;;;;;;;;;;5060146;27;92527;-76
2023/03/07 01:24:00;;;;;;;9.18;1.73;;;;;;;;;;5064747;27;92231;-76
2023/03/07 01:26:29;;;;;;;4.07;1.40;;;;;;;;;;5056220;27;94631;-75
2023/03/07 01:28:57;;;;;;;11.82;1.50;;;;;;;;;;5059608;27;92462;-75
2023/03/07 01:31:24;;;;;;;5.93;1.40;;;;;;;;;;5060039;27;93020;-75
2023/03/07 01:33:51;;;;;;;4.85;1.35;;;;;;;;;;5023882;27;94821;-76
2023/03/07 01:36:29;;;;;;;6.68;1.30;;;;;;;;;;5043989;27;92475;-76
2023/03/07 01:39:09;;;;;;;3.55;1.60;;;;;;;;;;5036286;27;96813;-76
2023/03/07 01:41:38;;;;;;;4.70;1.55;;;;;;;;;;5036924;27;97221;-76
2023/03/07 01:44:15;;;;;;;4.97;1.50;;;;;;;;;;5038834;28;92036;-76
2023/03/07 01:46:53;;;;;;;4.30;1.50;;;;;;;;;;5024407;27;95079;-76
2023/03/07 01:49:26;;;;;;;4.15;1.63;;;;;;;;;;5038730;27;92696;-76
2023/03/07 01:52:01;;;;;;;3.72;1.48;;;;;;;;;;5039334;28;92353;-76
2023/03/07 01:54:29;;;;;;;5.20;1.55;;;;;;;;;;5025724;27;95077;-76
2023/03/07 01:56:56;;;;;;;8.57;1.90;;;;;;;;;;5038467;27;92123;-75
2023/03/07 01:59:34;;;;;;;7.85;1.40;;;;;;;;;;5039437;28;92906;-76
2023/03/07 02:02:04;;;;;;;4.28;1.63;;;;;;;;;;5038868;28;95578;-76
2023/03/07 02:04:38;;;;;;;3.65;1.40;;;;;;;;;;5039238;27;92570;-76
2023/03/07 02:07:05;;;;;;;5.43;1.30;;;;;;;;;;5036877;28;98306;-76
2023/03/07 02:09:32;;;;;;;4.05;1.40;;;;;;;;;;5033004;27;95145;-76
2023/03/07 02:12:00;;;;;;;4.22;1.40;;;;;;;;;;5038543;27;95121;-76
2023/03/07 02:14:27;;;;;;;4.85;1.50;;;;;;;;;;5028379;27;94550;-76
2023/03/07 02:16:54;;;;;;;4.03;1.42;;;;;;;;;;5040310;27;92937;-75
2023/03/07 02:19:27;;;;;;;3.60;1.30;;;;;;;;;;5039930;27;92352;-75
2023/03/07 02:21:57;;;;;;;4.63;1.23;;;;;;;;;;5032862;27;95596;-76
2023/03/07 02:24:27;;;;;;;4.40;1.10;;;;;;;;;;5038719;28;91432;-75
2023/03/07 02:26:54;;;;;;;5.18;1.48;;;;;;;;;;5021833;28;98229;-75
2023/03/07 02:29:21;;;;;;;3.42;1.10;;;;;;;;;;5039574;27;93808;-75
2023/03/07 02:31:47;;;;;;;5.10;1.38;;;;;;;;;;5046122;27;94605;-75
2023/03/07 02:34:18;;;;;;;4.35;1.38;;;;;;;;;;5061229;27;93225;-76
2023/03/07 02:36:47;;;;;;;5.45;1.35;;;;;;;;;;5050245;27;92550;-75
2023/03/07 02:39:20;;;;;;;6.22;1.40;;;;;;;;;;5061931;27;92470;-76
2023/03/07 02:41:49;;;;;;;6.78;2.00;;;;;;;;;;5061593;27;95656;-76
2023/03/07 02:44:23;;;;;;;6.43;1.58;;;;;;;;;;5062132;27;92066;-76
2023/03/07 02:46:50;;;;;;;4.00;1.45;;;;;;;;;;5065464;27;99823;-75
2023/03/07 02:49:17;;;;;;;;;;;;;;;;;;5065422;27;94390;-75
2023/03/07 02:51:44;;;;;;;4.68;1.40;;;;;;;;;;5054504;27;109228;-76
2023/03/07 02:54:11;;;;;;;5.82;1.90;;;;;;;;;;5068486;27;93401;-77
2023/03/07 02:56:37;;;;;;;4.72;1.40;;;;;;;;;;5062427;27;94609;-77
2023/03/07 02:59:04;;;;;;;3.92;1.25;;;;;;;;;;5047931;27;94760;-76
2023/03/07 03:01:31;;;;;;;4.35;1.30;;;;;;;;;;5047747;27;95681;-76
2023/03/07 03:03:58;;;;;;;5.28;1.58;;;;;;;;;;5048091;27;92145;-76
2023/03/07 03:06:24;;;;;;;5.22;1.30;;;;;;;;;;5064570;27;92160;-77
2023/03/07 03:08:51;;;;;;;6.80;1.60;;;;;;;;;;5082829;27;97624;-76
2023/03/07 03:11:17;;;;;;;5.38;1.40;;;;;;;;;;5047873;27;92423;-76
2023/03/07 03:13:43;;;;;;;7.05;1.48;;;;;;;;;;5068257;27;95463;-76
2023/03/07 03:16:10;;;;;;;3.70;1.40;;;;;;;;;;5047437;27;92215;-76
2023/03/07 03:18:38;;;;;;;7.20;1.42;;;;;;;;;;5055933;27;92566;-76
2023/03/07 03:21:08;;;;;;;3.30;1.00;;;;;;;;;;5080997;27;94687;-76
2023/03/07 03:23:35;;;;;;;5.90;1.50;;;;;;;;;;5047653;27;92194;-76
2023/03/07 03:26:06;;;;;;;4.53;1.27;;;;;;;;;;5047682;27;94478;-77
2023/03/07 03:28:33;;;;;;;3.10;1.10;;;;;;;;;;5064371;27;95360;-76
2023/03/07 03:31:01;;;;;;;4.95;1.17;;;;;;;;;;5042826;27;93047;-75
2023/03/07 03:33:29;;;;;;;5.10;1.30;;;;;;;;;;5065856;27;93473;-75
2023/03/07 03:35:56;;;;;;;4.90;1.40;;;;;;;;;;5046108;27;95481;-74
2023/03/07 03:38:23;;;;;;;;;;;;;;;;;;5061854;27;94384;-75
2023/03/07 03:40:49;;;;;;;6.38;1.42;;;;;;;;;;5061674;27;94949;-75
2023/03/07 03:43:17;;;;;;;4.38;1.40;;;;;;;;;;5044750;27;92378;-75
2023/03/07 03:45:52;;;;;;;3.30;1.17;;;;;;;;;;5057480;27;95553;-76
2023/03/07 03:48:18;;;;;;;6.90;1.30;;;;;;;;;;5046706;27;95798;-75
2023/03/07 03:50:45;;;;;;;4.45;1.30;;;;;;;;;;5061521;27;92116;-75
2023/03/07 03:53:11;;;;;;;5.13;1.00;;;;;;;;;;5062145;27;92357;-75
2023/03/07 03:55:38;;;;;;;4.93;1.25;;;;;;;;;;5059990;27;94743;-76
2023/03/07 03:58:04;;;;;;;4.53;1.33;;;;;;;;;;5046800;27;92342;-77
2023/03/07 04:00:30;;;;;;;3.97;1.05;;;;;;;;;;5059221;27;93419;-75
2023/03/07 04:02:58;;;;;;;7.95;1.30;;;;;;;;;;5060778;27;91683;-75
2023/03/07 04:05:24;;;;;;;5.35;1.20;;;;;;;;;;5053556;27;93317;-74
2023/03/07 04:07:52;;;;;;;5.50;1.50;;;;;;;;;;5043651;27;96072;-75
2023/03/07 04:10:19;;;;;;;7.82;1.38;;;;;;;;;;5058715;27;94709;-75
2023/03/07 04:12:45;;;;;;;3.90;1.30;;;;;;;;;;5061796;27;94547;-76
2023/03/07 04:15:12;;;;;;;4.28;1.20;;;;;;;;;;5059931;27;95397;-75
2023/03/07 04:17:38;;;;;;;6.50;1.38;;;;;;;;;;5060646;27;92764;-76
2023/03/07 04:20:05;;;;;;;5.45;1.33;;;;;;;;;;5046476;27;93969;-74
2023/03/07 04:22:32;;;;;;;4.95;1.30;;;;;;;;;;5059773;27;93090;-75
2023/03/07 04:24:59;;;;;;;5.00;1.60;;;;;;;;;;5060149;27;93781;-75
2023/03/07 04:27:25;;;;;;;5.95;1.40;;;;;;;;;;5060849;27;93861;-76
2023/03/07 04:29:52;;;;;;;6.78;1.23;;;;;;;;;;5053650;27;92170;-76
2023/03/07 04:32:20;;;;;;;6.10;1.25;;;;;;;;;;5061169;27;99587;-76
2023/03/07 04:34:47;;;;;;;5.63;1.50;;;;;;;;;;5060898;27;97725;-76
2023/03/07 04:37:14;;;;;;;5.63;1.20;;;;;;;;;;5063087;27;92282;-76
2023/03/07 04:39:40;;;;;;;5.15;1.20;;;;;;;;;;5047038;27;92763;-75
2023/03/07 04:42:08;;;;;;;4.57;1.30;;;;;;;;;;5065558;27;95354;-75
2023/03/07 04:44:35;;;;;;;6.13;1.25;;;;;;;;;;5045891;27;95657;-77
2023/03/07 04:47:02;;;;;;;4.72;1.38;;;;;;;;;;5081897;27;92855;-76
2023/03/07 04:49:31;;;;;;;5.47;1.10;;;;;;;;;;5063051;27;92334;-77
2023/03/07 04:51:59;;;;;;;4.05;1.30;;;;;;;;;;5046859;27;92729;-78
2023/03/07 04:54:26;;;;;;;4.20;1.10;;;;;;;;;;5062487;27;95794;-77
2023/03/07 04:56:53;;;;;;;6.55;1.30;;;;;;;;;;5054558;27;92599;-76
2023/03/07 04:59:19;;;;;;;5.72;1.27;;;;;;;;;;5073672;27;95040;-76
2023/03/07 05:01:46;;;;;;;5.93;1.48;;;;;;;;;;5062553;27;94431;-76
2023/03/07 05:04:13;;;;;;;5.70;1.52;;;;;;;;;;5066316;27;92257;-76
2023/03/07 05:06:39;;;;;;;7.25;1.35;;;;;;;;;;5061473;27;95361;-77
2023/03/07 05:09:07;;;;;;;6.13;1.17;;;;;;;;;;5062723;27;92009;-76
2023/03/07 05:11:33;;;;;;;4.57;1.10;;;;;;;;;;5081806;27;92305;-76
2023/03/07 05:14:00;;;;;;;5.93;1.15;;;;;;;;;;5062901;27;95385;-76
2023/03/07 05:16:26;;;;;;;3.90;1.10;;;;;;;;;;5062424;27;91816;-77
2023/03/07 05:18:53;;;;;;;4.60;0.93;;;;;;;;;;5063016;27;94728;-76
2023/03/07 05:21:19;;;;;;;5.32;1.00;;;;;;;;;;5062370;27;94673;-76
2023/03/07 05:23:46;;;;;;;6.40;1.17;;;;;;;;;;5064590;27;94726;-76
2023/03/07 05:26:12;;;;;;;4.38;1.25;;;;;;;;;;5080194;27;92659;-75
2023/03/07 05:28:39;;;;;;;4.00;1.05;;;;;;;;;;5061499;27;92117;-75
2023/03/07 05:31:06;;;;;;;7.32;1.25;;;;;;;;;;5048424;27;94842;-76
2023/03/07 05:33:32;;;;;;;5.03;1.30;;;;;;;;;;5067780;27;93636;-75
2023/03/07 05:35:59;;;;;;;3.40;1.10;;;;;;;;;;5081410;27;92114;-76
2023/03/07 05:38:27;;;;;;;4.25;1.15;;;;;;;;;;5062110;27;95012;-75
2023/03/07 05:40:54;;;;;;;6.30;1.25;;;;;;;;;;5081933;27;91846;-76
2023/03/07 05:43:20;;;;;;;5.35;1.20;;;;;;;;;;5063348;27;92091;-76
2023/03/07 05:45:47;;;;;;;4.80;1.10;;;;;;;;;;5066001;27;94800;-74
2023/03/07 05:48:13;;;;;;;3.40;0.90;;;;;;;;;;5079621;27;94820;-75
2023/03/07 05:50:41;;;;;;;6.85;1.08;;;;;;;;;;5080620;27;95440;-75
2023/03/07 05:53:08;;;;;;;7.00;1.02;;;;;;;;;;5062265;27;95039;-75
2023/03/07 05:55:34;;;;;;;3.63;0.93;;;;;;;;;;5045499;27;92600;-76
2023/03/07 05:58:01;;;;;;;3.75;1.08;;;;;;;;;;5062424;27;94489;-76
2023/03/07 06:00:27;;;;;;;3.97;0.93;;;;;;;;;;5080238;27;92925;-75
2023/03/07 06:03:00;;;;;;;2.05;0.65;;;;;;;;;;5080819;27;91944;-75
2023/03/07 06:05:26;;;;;;;3.47;0.75;;;;;;;;;;5080978;27;92423;-76
2023/03/07 06:07:53;;;;;;;3.30;0.80;;;;;;;;;;5064917;27;92964;-75
2023/03/07 06:10:20;;;;;;;5.38;0.70;;;;;;;;;;5061653;27;94937;-75
2023/03/07 06:12:50;;;;;;;2.00;0.80;;;;;;;;;;5060097;27;95171;-76
2023/03/07 06:15:17;;;;;;;5.03;0.95;;;;;;;;;;5061936;27;92394;-76
2023/03/07 06:17:44;;;;;;;2.83;0.73;;;;;;;;;;5062450;27;93947;-76
2023/03/07 06:20:11;;;;;;;2.63;0.80;;;;;;;;;;5063944;27;94379;-75
2023/03/07 06:22:37;;;;;;;2.95;0.80;;;;;;;;;;5064937;27;92324;-76
2023/03/07 06:25:05;;;;;;;4.63;0.85;;;;;;;;;;5066000;27;94742;-76
2023/03/07 06:27:32;;;;;;;5.88;0.98;;;;;;;;;;5065276;27;95799;-76
2023/03/07 06:29:59;;;;;;;4.22;0.90;;;;;;;;;;5088036;27;92220;-77
2023/03/07 06:32:29;;;;;;;3.70;0.80;;;;;;;;;;5047489;27;92954;-76
2023/03/07 06:34:56;;;;;;;1.88;0.65;;;;;;;;;;5068191;27;92386;-76
2023/03/07 06:37:24;;;;;;;3.92;0.80;;;;;;;;;;5063604;27;96045;-76
2023/03/07 06:39:52;;;;;;;3.97;0.80;;;;;;;;;;5065008;27;94953;-76
2023/03/07 06:42:18;;;;;;;1.42;0.60;;;;;;;;;;5084107;27;92155;-76
2023/03/07 06:44:44;;;;;;;4.32;0.90;;;;;;;;;;5064397;27;95226;-76
2023/03/07 06:47:11;;;;;;;2.03;0.60;;;;;;;;;;5064870;27;92898;-76
2023/03/07 06:49:37;;;;;;;3.17;1.00;;;;;;;;;;5082739;27;92429;-76
2023/03/07 06:52:04;;;;;;;2.60;0.80;;;;;;;;;;5067357;27;95218;-74
2023/03/07 06:54:30;;;;;;;3.30;0.77;;;;;;;;;;5064267;27;91664;-76
2023/03/07 06:56:57;;;;;;;3.85;0.80;;;;;;;;;;5064679;27;93771;-76
2023/03/07 06:59:24;;;;;;;2.10;0.75;;;;;;;;;;5063638;27;95386;-76
2023/03/07 07:01:51;;;;;;;1.02;0.60;;;;;;;;;;5062664;27;94447;-75
2023/03/07 07:04:19;;;;;;;3.95;0.75;;;;;;;;;;5063696;27;97791;-75
2023/03/07 07:06:47;;;;;;;3.42;0.85;;;;;;;;;;5063821;27;95482;-74
2023/03/07 07:09:14;;;;;;;3.47;0.80;;;;;;;;;;5047643;27;92915;-74
2023/03/07 07:11:40;;;;;;;2.60;0.80;;;;;;;;;;5064716;27;94935;-74
2023/03/07 07:14:10;;;;;;;3.97;0.70;;;;;;;;;;5067526;27;95267;-74
2023/03/07 07:16:37;;;;;;;2.47;0.90;;;;;;;;;;5063253;27;95208;-74
2023/03/07 07:19:05;;;;;;;0.80;0.57;;;;;;;;;;5064646;27;91975;-75
2023/03/07 07:21:33;;;;;;;3.03;0.80;;;;;;;;;;5064060;27;92972;-75
2023/03/07 07:24:00;;;;;;;2.92;0.70;;;;;;;;;;5064454;27;92372;-75
2023/03/07 07:26:27;;;;;;;2.55;0.80;;;;;;;;;;5061574;27;98096;-76
2023/03/07 07:28:55;;;;;;;2.10;0.80;;;;;;;;;;5064840;27;97096;-76
2023/03/07 07:31:21;;;;;;;2.17;0.75;;;;;;;;;;5057124;27;93005;-76
2023/03/07 07:33:48;;;;;;;3.67;0.82;;;;;;;;;;5071168;27;95930;-76
2023/03/07 07:36:16;;;;;;;2.17;0.90;;;;;;;;;;5063299;27;94285;-76
2023/03/07 07:38:42;;;;;;;4.68;0.80;;;;;;;;;;5063467;27;95255;-75
2023/03/07 07:41:10;;;;;;;6.97;0.80;;;;;;;;;;5047449;27;92117;-76
2023/03/07 07:43:37;;;;;;;10.95;1.00;;;;;;;;;;5064929;27;92271;-76
2023/03/07 07:46:13;;;;;;;4.45;0.90;;;;;;;;;;5063610;27;94620;-75
2023/03/07 07:48:39;;;;;;;3.00;0.88;;;;;;;;;;5063145;27;92842;-76
2023/03/07 07:51:06;;;;;;;5.05;0.77;;;;;;;;;;5062042;27;94375;-77
2023/03/07 07:53:35;;;;;;;4.68;0.80;;;;;;;;;;5063603;27;95165;-77
2023/03/07 07:56:02;;;;;;;4.40;0.98;;;;;;;;;;5064361;27;92092;-78
2023/03/07 07:58:28;;;;;;;2.63;0.75;;;;;;;;;;5074325;27;94249;-75
2023/03/07 08:00:55;;;;;;;3.60;0.90;;;;;;;;;;5045262;27;92388;-78
2023/03/07 08:03:21;;;;;;;3.70;0.85;;;;;;;;;;5083082;27;92354;-77
2023/03/07 08:05:48;;;;;;;2.80;0.75;;;;;;;;;;5081518;27;93690;-76
2023/03/07 08:08:15;;;;;;;4.78;0.82;;;;;;;;;;5082711;27;91636;-77
2023/03/07 08:10:43;;;;;;;7.93;1.00;;;;;;;;;;5081289;27;92671;-78
2023/03/07 08:13:13;;;;;;;3.35;0.82;;;;;;;;;;5080847;27;92704;-76
2023/03/07 08:15:39;;;;;;;2.47;0.77;;;;;;;;;;5079021;27;94473;-78
2023/03/07 08:18:06;;;;;;;2.15;1.00;;;;;;;;;;5085820;27;95004;-77
2023/03/07 08:20:33;;;;;;;4.68;1.08;;;;;;;;;;5080389;27;92222;-78
2023/03/07 08:22:59;;;;;;;4.95;1.25;;;;;;;;;;5082619;27;92583;-78
2023/03/07 08:25:26;;;;;;;4.63;1.10;;;;;;;;;;5081685;27;92811;-76
2023/03/07 08:27:53;;;;;;;4.28;1.40;;;;;;;;;;5072539;27;92138;-77
2023/03/07 08:30:24;;;;;;;3.55;1.20;;;;;;;;;;5077314;27;100018;-78
2023/03/07 08:32:52;;;;;;;3.42;1.38;;;;;;;;;;5084115;27;96395;-78
2023/03/07 08:35:18;;;;;;;;;;;;;;;;;;5084639;27;92420;-77
2023/03/07 08:37:45;;;;;;;2.45;1.20;;;;;;;;;;5082668;27;111340;-77
2023/03/07 08:40:13;;;;;;;3.22;1.25;;;;;;;;;;5082757;27;95450;-78
2023/03/07 08:42:39;;;;;;;3.47;1.30;;;;;;;;;;5072421;27;94775;-77
2023/03/07 08:45:06;;;;;;;1.98;1.20;;;;;;;;;;5060278;27;93309;-76
2023/03/07 08:47:32;;;;;;;3.03;1.20;;;;;;;;;;5063252;27;92325;-77
2023/03/07 08:49:59;;;;;;;3.70;1.17;;;;;;;;;;5082047;27;92115;-76
2023/03/07 08:52:25;;;;;;;1.98;1.20;;;;;;;;;;5081027;27;93848;-77
2023/03/07 08:54:52;;;;;;;2.92;1.10;;;;;;;;;;5062175;27;92171;-77
2023/03/07 08:57:19;;;;;;;2.90;1.10;;;;;;;;;;5082965;27;92867;-78
2023/03/07 08:59:45;;;;;;;6.13;1.17;;;;;;;;;;5080149;27;92874;-76
2023/03/07 09:02:12;;;;;;;2.75;1.20;;;;;;;;;;5059861;27;92605;-76
2023/03/07 09:04:38;;;;;;;2.28;0.90;;;;;;;;;;5078588;27;94598;-75
2023/03/07 09:07:05;;;;;;;4.07;0.90;;;;;;;;;;5081589;27;92988;-75
2023/03/07 09:09:31;;;;;;;2.50;1.10;;;;;;;;;;5081019;27;92348;-75
2023/03/07 09:11:58;;;;;;;2.25;1.00;;;;;;;;;;5081936;27;93371;-76
2023/03/07 09:14:24;;;;;;;1.27;1.00;;;;;;;;;;5081278;27;92489;-76
2023/03/07 09:16:50;;;;;;;3.08;1.10;;;;;;;;;;5080639;27;96716;-76
2023/03/07 09:19:17;;;;;;;4.07;1.20;;;;;;;;;;5080722;27;92517;-75
2023/03/07 09:21:43;;;;;;;2.15;1.00;;;;;;;;;;5080876;27;91737;-75
2023/03/07 09:24:10;;;;;;;3.85;1.30;;;;;;;;;;5075773;27;93749;-76
2023/03/07 09:26:37;;;;;;;3.30;1.15;;;;;;;;;;5060635;27;92548;-75
2023/03/07 09:29:03;;;;;;;3.25;1.00;;;;;;;;;;5078883;27;94423;-74
2023/03/07 09:31:29;;;;;;;1.90;0.90;;;;;;;;;;5079123;27;92537;-75
2023/03/07 09:33:56;;;;;;;2.22;1.10;;;;;;;;;;5081698;27;92125;-76
2023/03/07 09:36:22;;;;;;;3.83;1.17;;;;;;;;;;5077734;27;92631;-76
2023/03/07 09:38:49;;;;;;;3.30;1.00;;;;;;;;;;5079660;27;93242;-75
2023/03/07 09:41:19;;;;;;;2.03;0.90;;;;;;;;;;5061641;27;92489;-76
2023/03/07 09:44:03;;;;;;;2.22;0.85;;;;;;;;;;5083446;27;93085;-76
2023/03/07 09:47:02;;;;;;;1.30;0.85;;;;;;;;;;5058126;27;91502;-75
2023/03/07 09:49:32;;;;;;;2.60;0.95;;;;;;;;;;5079887;27;92550;-76
2023/03/07 09:51:59;;;;;;;2.03;0.90;;;;;;;;;;5080354;27;93492;-75
2023/03/07 09:54:39;;;;;;;2.45;0.75;;;;;;;;;;5078393;27;94429;-75
2023/03/07 09:57:12;;;;;;;1.90;0.90;;;;;;;;;;5080573;27;95063;-76
2023/03/07 09:59:42;;;;;;;1.60;1.00;;;;;;;;;;5079574;27;93529;-75
2023/03/07 10:02:19;;;;;;;1.75;0.98;;;;;;;;;;5052994;27;92790;-75
2023/03/07 10:05:03;;;;;;;1.88;1.00;;;;;;;;;;5060794;27;92587;-75
2023/03/07 10:07:31;;;;;;;1.38;1.10;;;;;;;;;;5083529;27;93473;-75
2023/03/07 10:10:03;;;;;;;2.85;1.10;;;;;;;;;;5079700;27;92725;-76
2023/03/07 10:12:53;;;;;;;2.85;1.10;;;;;;;;;;5080086;27;92252;-75
2023/03/07 10:15:22;;;;;;;3.33;1.08;;;;;;;;;;5082575;27;92675;-75
2023/03/07 10:18:09;;;;;;;1.77;0.90;;;;;;;;;;5073430;27;93659;-75
2023/03/07 10:20:44;;;;;;;1.25;0.95;;;;;;;;;;5067279;27;95713;-75
2023/03/07 10:23:27;;;;;;;2.97;1.00;;;;;;;;;;5077094;27;92736;-75
2023/03/07 10:26:01;;;;;;;1.58;0.90;;;;;;;;;;5061177;27;92880;-75
2023/03/07 10:28:32;;;;;;;1.98;0.90;;;;;;;;;;5079458;27;92782;-75
2023/03/07 10:31:01;;;;;;;1.80;1.00;;;;;;;;;;5081475;27;93473;-75
2023/03/07 10:33:29;;;;;;;1.92;1.00;;;;;;;;;;5060191;27;92734;-75
2023/03/07 10:36:28;;;;;;;2.53;1.00;;;;;;;;;;5070980;27;92452;-76
2023/03/07 10:38:54;;;;;;;3.08;1.00;;;;;;;;;;5025461;27;97258;-75
2023/03/07 10:41:21;;;;;;;2.03;1.00;;;;;;;;;;5058865;27;95157;-76
2023/03/07 10:43:48;;;;;;;2.95;1.00;;;;;;;;;;5078125;27;92244;-76
2023/03/07 10:46:19;;;;;;;1.63;1.00;;;;;;;;;;5057330;27;94810;-76
2023/03/07 10:49:00;;;;;;;2.42;0.90;;;;;;;;;;5066616;27;97193;-75
2023/03/07 10:51:47;;;;;;;1.73;1.00;;;;;;;;;;5079147;27;93314;-75
2023/03/07 10:54:15;;;;;;;3.15;0.98;;;;;;;;;;5058539;27;95242;-75
2023/03/07 10:57:00;;;;;;;1.38;0.80;;;;;;;;;;5068137;27;92269;-76
2023/03/07 10:59:27;;;;;;;2.63;1.08;;;;;;;;;;5078748;27;94298;-76
2023/03/07 11:01:55;;;;;;;1.08;0.85;;;;;;;;;;5056711;27;93369;-75
2023/03/07 11:04:23;;;;;;;2.00;0.88;;;;;;;;;;5059745;27;91405;-74
2023/03/07 11:06:49;;;;;;;2.97;0.90;;;;;;;;;;5079727;27;92050;-75
2023/03/07 11:09:16;;;;;;;0.82;0.73;;;;;;;;;;5062573;27;92604;-75
2023/03/07 11:12:09;;;;;;;2.05;0.70;;;;;;;;;;5074590;27;94491;-74
2023/03/07 11:14:46;;;;;;;1.33;0.88;;;;;;;;;;5072165;27;95100;-76
2023/03/07 11:17:21;;;;;;;2.28;0.90;;;;;;;;;;5081041;27;92697;-75
2023/03/07 11:19:57;;;;;;;2.00;0.98;;;;;;;;;;5082211;27;92549;-75
2023/03/07 11:22:28;;;;;;;3.05;0.82;;;;;;;;;;5062946;27;92723;-74
2023/03/07 11:25:00;;;;;;;1.30;0.90;;;;;;;;;;5082974;27;92074;-74
2023/03/07 11:27:46;;;;;;;2.33;0.80;;;;;;;;;;5082398;27;92595;-74
2023/03/07 11:30:13;;;;;;;1.58;0.80;;;;;;;;;;5082802;27;92024;-77
2023/03/07 11:32:41;;;;;;;1.58;0.80;;;;;;;;;;5081335;27;92103;-76
2023/03/07 11:35:17;;;;;;;1.98;0.80;;;;;;;;;;5080824;27;92361;-75
2023/03/07 11:37:56;;;;;;;2.28;0.82;;;;;;;;;;5062472;27;95492;-76
2023/03/07 11:40:28;;;;;;;1.75;0.80;;;;;;;;;;5085817;27;92351;-74
2023/03/07 11:43:04;;;;;;;1.63;0.80;;;;;;;;;;5081911;27;97064;-75
2023/03/07 11:45:38;;;;;;;1.50;0.80;;;;;;;;;;5082041;27;92513;-76
2023/03/07 11:48:23;;;;;;;1.48;0.80;;;;;;;;;;5063833;27;92606;-77
2023/03/07 11:50:53;;;;;;;2.13;0.90;;;;;;;;;;5081174;27;92747;-74
2023/03/07 11:53:20;;;;;;;1.63;0.82;;;;;;;;;;5082643;27;92358;-76
2023/03/07 11:55:52;;;;;;;2.08;0.75;;;;;;;;;;5082332;27;93031;-75
2023/03/07 11:58:34;;;;;;;1.10;0.70;;;;;;;;;;5078470;27;93076;-75
2023/03/07 12:01:06;;;;;;;2.92;0.93;;;;;;;;;;5076865;27;92811;-76
2023/03/07 12:03:54;;;;;;;2.30;0.80;;;;;;;;;;5044764;27;96297;-77
2023/03/07 12:06:21;;;;;;;0.95;0.70;;;;;;;;;;5063381;27;92548;-75
2023/03/07 12:09:06;;;;;;;1.52;0.70;;;;;;;;;;5063151;27;92536;-75
2023/03/07 12:11:51;;;;;;;2.80;0.80;;;;;;;;;;5056683;27;95054;-76
2023/03/07 12:14:20;;;;;;;3.13;0.90;;;;;;;;;;5079566;27;92702;-75
2023/03/07 12:17:03;;;;;;;2.10;0.82;;;;;;;;;;5058376;27;92643;-73
2023/03/07 12:19:35;;;;;;;1.50;0.77;;;;;;;;;;5061827;27;92813;-75
2023/03/07 12:22:16;;;;;;;2.85;0.80;;;;;;;;;;5081273;27;91473;-74
2023/03/07 12:24:53;;;;;;;1.35;0.70;;;;;;;;;;5083508;27;92423;-75
2023/03/07 12:27:26;;;;;;;1.15;0.65;;;;;;;;;;5080679;27;92776;-74
2023/03/07 12:29:56;;;;;;;1.67;0.80;;;;;;;;;;5076506;27;94836;-74
2023/03/07 12:32:26;;;;;;;1.98;0.75;;;;;;;;;;5080274;27;92442;-75
2023/03/07 12:34:57;;;;;;;1.02;0.73;;;;;;;;;;5080266;27;92263;-75
2023/03/07 12:37:25;;;;;;;0.82;0.68;;;;;;;;;;5076703;27;92412;-75
2023/03/07 12:39:53;;;;;;;2.53;0.80;;;;;;;;;;5080807;27;93187;-75
2023/03/07 12:42:36;;;;;;;1.52;0.70;;;;;;;;;;5080838;27;92654;-76
2023/03/07 12:45:06;;;;;;;2.28;0.82;;;;;;;;;;5079207;27;98077;-76
2023/03/07 12:47:32;;;;;;;2.25;0.85;;;;;;;;;;5083796;27;92603;-76
2023/03/07 12:50:02;;;;;;;7.43;1.40;;;;;;;;;;5061612;27;92846;-75
2023/03/07 12:52:31;;;;;;;6.88;1.02;;;;;;;;;;5061919;27;93048;-75
2023/03/07 12:55:05;;;;;;;6.18;1.15;;;;;;;;;;5075568;27;94738;-75
2023/03/07 12:57:34;;;;;;;3.70;0.80;;;;;;;;;;5081690;27;94895;-75
2023/03/07 13:00:04;;;;;;;5.55;0.93;;;;;;;;;;5081193;27;93758;-75
2023/03/07 13:02:32;;;;;;;6.13;0.90;;;;;;;;;;5062157;27;99848;-76
2023/03/07 13:05:01;;;;;;;5.95;1.00;;;;;;;;;;5062654;27;95283;-75
2023/03/07 13:07:29;;;;;;;3.88;0.85;;;;;;;;;;5080764;27;93619;-75
2023/03/07 13:09:56;;;;;;;2.13;0.85;;;;;;;;;;5065775;27;92261;-75
2023/03/07 13:12:33;;;;;;;4.22;0.90;;;;;;;;;;5058418;27;93921;-76
2023/03/07 13:15:05;;;;;;;3.85;0.70;;;;;;;;;;5080839;27;92519;-75
2023/03/07 13:17:32;;;;;;;3.70;0.82;;;;;;;;;;5081353;27;92708;-74
2023/03/07 13:20:14;;;;;;;4.20;0.77;;;;;;;;;;5079316;27;95101;-75
2023/03/07 13:22:40;;;;;;;4.47;0.80;;;;;;;;;;5076196;27;94163;-75
2023/03/07 13:25:19;;;;;;;5.47;0.90;;;;;;;;;;5080858;27;92022;-74
2023/03/07 13:27:47;;;;;;;4.97;0.82;;;;;;;;;;5058644;27;94084;-75
2023/03/07 13:30:20;;;;;;;4.45;0.75;;;;;;;;;;5081078;27;92306;-75
2023/03/07 13:32:46;;;;;;;;;;;;;;;;;;5083576;27;93535;-76
2023/03/07 13:35:31;;;;;;;1.52;0.60;;;;;;;;;;5080570;27;104234;-76
2023/03/07 13:37:58;;;;;;;1.92;0.60;;;;;;;;;;5079935;27;92375;-75
2023/03/07 13:40:26;;;;;;;0.93;0.60;;;;;;;;;;5080090;27;92817;-75
2023/03/07 13:42:52;;;;;;;0.77;0.60;;;;;;;;;;5079807;27;92474;-75
2023/03/07 13:45:37;;;;;;;2.60;0.60;;;;;;;;;;5078586;27;94794;-74
2023/03/07 13:48:03;;;;;;;2.05;0.60;;;;;;;;;;5058277;27;94690;-74
2023/03/07 13:50:33;;;;;;;1.25;0.40;;;;;;;;;;5078643;27;92526;-76
2023/03/07 13:53:19;;;;;;;1.23;0.60;;;;;;;;;;5057929;27;92571;-76
2023/03/07 13:55:49;;;;;;;3.53;0.80;;;;;;;;;;5059594;27;92828;-76
2023/03/07 13:58:34;;;;;;;3.90;0.70;;;;;;;;;;5077149;27;92536;-75
2023/03/07 14:01:40;;;;;;;1.60;0.65;;;;;;;;;;5078750;27;97068;-76
2023/03/07 14:04:21;;;;;;;0.82;0.60;;;;;;;;;;4981987;28;91770;-76
2023/03/07 14:07:20;;;;;;;2.50;0.70;;;;;;;;;;4980632;28;96569;-75
2023/03/07 14:10:07;;;;;;;2.55;0.70;;;;;;;;;;5028343;27;95624;-76
2023/03/07 14:12:55;;;;;;;0.82;0.50;;;;;;;;;;5059024;27;94584;-76
2023/03/07 14:15:31;;;;;;;4.55;0.85;;;;;;;;;;5080385;27;94155;-76
2023/03/07 14:18:03;;;;;;;1.90;0.73;;;;;;;;;;5082683;27;93023;-74
2023/03/07 14:20:45;;;;;;;1.67;0.70;;;;;;;;;;5076565;27;92606;-75
2023/03/07 14:23:30;;;;;;;2.13;0.80;;;;;;;;;;5074267;27;92715;-74
2023/03/07 14:26:11;;;;;;;2.58;1.00;;;;;;;;;;5079338;27;92082;-75
2023/03/07 14:28:46;;;;;;;2.33;0.57;;;;;;;;;;5079308;27;92593;-76
2023/03/07 14:31:19;;;;;;;0.65;0.60;;;;;;;;;;5080129;27;91971;-74
2023/03/07 14:33:45;;;;;;;2.33;0.60;;;;;;;;;;5060019;27;92588;-74
2023/03/07 14:36:26;;;;;;;3.03;0.70;;;;;;;;;;5078902;27;92502;-74
2023/03/07 14:38:56;;;;;;;2.22;0.70;;;;;;;;;;5057815;27;101448;-75
2023/03/07 14:41:34;;;;;;;1.83;0.80;;;;;;;;;;5065436;27;92552;-75
2023/03/07 14:44:06;;;;;;;1.00;0.60;;;;;;;;;;5082926;27;92706;-75
2023/03/07 14:46:33;;;;;;;2.63;0.85;;;;;;;;;;5082132;27;92063;-75
2023/03/07 14:49:09;;;;;;;1.75;0.68;;;;;;;;;;5081445;27;93707;-75
2023/03/07 14:51:39;;;;;;;3.83;0.80;;;;;;;;;;5082810;27;92867;-75
2023/03/07 14:54:14;;;;;;;1.92;0.88;;;;;;;;;;5082240;27;93578;-75
2023/03/07 14:56:40;;;;;;;1.33;0.60;;;;;;;;;;5064232;27;95107;-75
2023/03/07 14:59:07;;;;;;;4.20;1.00;;;;;;;;;;5082734;27;93120;-75
2023/03/07 15:01:47;;;;;;;1.38;0.77;;;;;;;;;;5064148;27;93384;-75